createdAt,value
2019-04-10T00:01:34.119Z,41.04
2019-04-10T00:04:07.546Z,41.29
2019-04-10T00:06:37.754Z,41.33
2019-04-10T00:09:08.697Z,41.37
2019-04-10T00:11:39.022Z,41.27
2019-04-10T00:14:10.299Z,41.04
2019-04-10T00:16:40.554Z,41.10
2019-04-10T00:19:10.721Z,41.60
2019-04-10T00:21:42.086Z,41.35
2019-04-10T00:24:13.566Z,41.42
2019-04-10T00:26:46.211Z,41.48
2019-04-10T00:29:18.879Z,41.11
2019-04-10T00:31:51.557Z,41.36
2019-04-10T00:34:23.370Z,41.84
2019-04-10T00:36:55.457Z,41.31
2019-04-10T00:39:28.602Z,41.66
2019-04-10T00:41:59.414Z,41.93
2019-04-10T00:44:30.162Z,42.30
2019-04-10T00:47:00.304Z,42.05
2019-04-10T00:49:31.543Z,42.10
2019-04-10T00:52:03.909Z,41.79
2019-04-10T00:54:35.263Z,41.79
2019-04-10T00:57:07.371Z,41.88
2019-04-10T00:59:38.345Z,42.34
2019-04-10T01:02:12.199Z,42.13
2019-04-10T01:04:42.851Z,42.45
2019-04-10T01:07:14.784Z,41.69
2019-04-10T01:09:45.872Z,41.78
2019-04-10T01:12:19.493Z,42.10
2019-04-10T01:14:50.387Z,41.78
2019-04-10T01:17:22.252Z,41.57
2019-04-10T01:19:54.487Z,42.03
2019-04-10T01:22:25.930Z,41.93
2019-04-10T01:24:57.794Z,41.78
2019-04-10T01:27:28.814Z,41.88
2019-04-10T01:30:02.448Z,42.19
2019-04-10T01:32:34.835Z,42.39
2019-04-10T01:35:07.882Z,42.25
2019-04-10T01:37:48.760Z,41.99
2019-04-10T01:40:10.768Z,42.40
2019-04-10T01:42:43.173Z,42.21
2019-04-10T01:45:13.890Z,42.23
2019-04-10T01:47:45.597Z,42.23
2019-04-10T01:50:18.052Z,42.23
2019-04-10T01:52:49.666Z,42.46
2019-04-10T01:55:26.655Z,42.18
2019-04-10T01:57:54.719Z,41.90
2019-04-10T02:00:26.306Z,42.27
2019-04-10T02:02:57.948Z,41.73
2019-04-10T02:05:30.317Z,42.53
2019-04-10T02:08:08.599Z,42.33
2019-04-10T02:10:36.340Z,42.06
2019-04-10T02:13:07.430Z,42.25
2019-04-10T02:15:38.915Z,42.33
2019-04-10T02:18:09.569Z,42.27
2019-04-10T02:20:40.285Z,42.06
2019-04-10T02:23:12.199Z,42.26
2019-04-10T02:25:43.602Z,41.87
2019-04-10T02:28:15.551Z,41.72
2019-04-10T02:30:47.935Z,41.88
2019-04-10T02:33:19.760Z,41.82
2019-04-10T02:35:50.799Z,41.93
2019-04-10T02:38:38.998Z,41.65
2019-04-10T02:40:53.298Z,41.76
2019-04-10T02:43:23.806Z,41.78
2019-04-10T02:45:55.908Z,41.61
2019-04-10T02:48:27.558Z,41.98
2019-04-10T02:50:59.652Z,41.93
2019-04-10T02:53:31.654Z,41.34
2019-04-10T02:56:03.095Z,41.45
2019-04-10T02:58:34.356Z,41.17
2019-04-10T03:01:07.005Z,40.89
2019-04-10T03:03:38.452Z,40.92
2019-04-10T03:06:10.014Z,40.82
2019-04-10T03:08:59.237Z,40.82
2019-04-10T03:11:24.388Z,40.79
2019-04-10T03:13:55.628Z,40.79
2019-04-10T03:16:27.310Z,40.76
2019-04-10T03:18:57.771Z,40.64
2019-04-10T03:21:29.338Z,40.60
2019-04-10T03:24:00.629Z,41.13
2019-04-10T03:26:32.057Z,41.03
2019-04-10T03:29:03.225Z,41.10
2019-04-10T03:31:36.901Z,40.84
2019-04-10T03:34:38.885Z,40.53
2019-04-10T03:37:08.030Z,40.86
2019-04-10T03:39:40.512Z,40.37
2019-04-10T03:42:12.519Z,40.45
2019-04-10T03:44:45.244Z,41.06
2019-04-10T03:47:17.926Z,41.01
2019-04-10T03:49:49.832Z,40.83
2019-04-10T03:52:21.516Z,40.87
2019-04-10T03:54:55.258Z,40.71
2019-04-10T03:57:26.794Z,40.39
2019-04-10T03:59:58.184Z,40.38
2019-04-10T04:02:31.537Z,40.09
2019-04-10T04:05:04.407Z,40.34
2019-04-10T04:07:36.926Z,40.04
2019-04-10T04:10:07.217Z,40.39
2019-04-10T04:12:37.382Z,39.98
2019-04-10T04:15:09.421Z,40.20
2019-04-10T04:17:40.144Z,40.40
2019-04-10T04:20:11.212Z,40.08
2019-04-10T04:22:41.844Z,40.51
2019-04-10T04:25:12.894Z,40.25
2019-04-10T04:27:44.241Z,40.44
2019-04-10T04:30:17.006Z,40.37
2019-04-10T04:32:48.380Z,40.08
2019-04-10T04:35:24.253Z,40.00
2019-04-10T04:37:56.011Z,40.40
2019-04-10T04:40:27.910Z,40.43
2019-04-10T04:43:00.159Z,41.23
2019-04-10T04:45:30.787Z,40.60
2019-04-10T04:48:01.903Z,40.71
2019-04-10T04:50:34.097Z,40.59
2019-04-10T04:53:07.245Z,40.54
2019-04-10T04:55:37.446Z,40.92
2019-04-10T04:58:09.610Z,40.56
2019-04-10T05:00:40.269Z,40.70
2019-04-10T05:03:11.981Z,40.33
2019-04-10T05:05:43.137Z,40.52
2019-04-10T05:08:15.310Z,40.18
2019-04-10T05:10:47.451Z,40.00
2019-04-10T05:13:18.115Z,40.51
2019-04-10T05:15:49.926Z,40.33
2019-04-10T05:18:21.215Z,40.05
2019-04-10T05:20:52.642Z,40.14
2019-04-10T05:23:24.391Z,40.01
2019-04-10T05:25:56.160Z,39.90
2019-04-10T05:28:28.548Z,40.06
2019-04-10T05:30:59.568Z,40.03
2019-04-10T05:33:31.735Z,39.67
2019-04-10T05:36:04.737Z,39.66
2019-04-10T05:38:35.757Z,39.58
2019-04-10T05:41:09.131Z,39.63
2019-04-10T05:43:40.799Z,39.62
2019-04-10T05:46:12.426Z,39.63
2019-04-10T05:48:44.132Z,39.53
2019-04-10T05:51:15.079Z,39.77
2019-04-10T05:53:47.323Z,39.63
2019-04-10T05:56:20.689Z,39.65
2019-04-10T05:58:51.405Z,39.40
2019-04-10T06:01:33.225Z,39.46
2019-04-10T06:03:54.592Z,39.66
2019-04-10T06:06:25.293Z,39.52
2019-04-10T06:08:59.082Z,39.46
2019-04-10T06:11:29.274Z,39.72
2019-04-10T06:14:01.148Z,40.03
2019-04-10T06:16:32.252Z,39.38
2019-04-10T06:19:03.957Z,39.18
2019-04-10T06:21:34.102Z,39.24
2019-04-10T06:24:05.802Z,39.44
2019-04-10T06:26:37.568Z,39.79
2019-04-10T06:29:08.637Z,39.45
2019-04-10T06:31:39.119Z,39.32
2019-04-10T06:34:09.449Z,38.67
2019-04-10T06:36:41.718Z,38.89
2019-04-10T06:39:14.105Z,38.75
2019-04-10T06:41:44.577Z,38.00
2019-04-10T06:44:15.222Z,39.16
2019-04-10T06:46:46.584Z,38.58
2019-04-10T06:49:17.831Z,39.19
2019-04-10T06:51:49.312Z,38.58
2019-04-10T06:54:23.225Z,38.96
2019-04-10T06:56:54.548Z,38.90
2019-04-10T06:59:26.537Z,38.69
2019-04-10T07:02:01.311Z,38.98
2019-04-10T07:04:28.569Z,39.22
2019-04-10T07:07:08.768Z,39.63
2019-04-10T07:09:37.839Z,38.97
2019-04-10T07:12:08.105Z,38.77
2019-04-10T07:14:45.551Z,38.21
2019-04-10T07:17:14.523Z,38.37
2019-04-10T07:19:47.455Z,38.26
2019-04-10T07:22:17.803Z,37.92
2019-04-10T07:24:54.420Z,37.45
2019-04-10T07:27:26.323Z,37.50
2019-04-10T07:29:59.779Z,37.79
2019-04-10T07:32:31.071Z,37.82
2019-04-10T07:35:03.280Z,37.32
2019-04-10T07:37:36.205Z,37.45
2019-04-10T07:40:10.243Z,36.57
2019-04-10T07:42:43.304Z,36.94
2019-04-10T07:45:14.970Z,37.17
2019-04-10T07:47:46.241Z,37.49
2019-04-10T07:50:18.353Z,37.33
2019-04-10T07:52:48.619Z,36.97
2019-04-10T07:55:21.092Z,37.35
2019-04-10T07:57:53.213Z,36.88
2019-04-10T08:00:25.085Z,37.02
2019-04-10T08:02:55.443Z,36.56
2019-04-10T08:05:27.238Z,36.44
2019-04-10T08:07:58.966Z,36.71
2019-04-10T08:10:30.753Z,36.15
2019-04-10T08:13:02.505Z,35.99
2019-04-10T08:15:33.662Z,35.69
2019-04-10T08:18:04.585Z,36.44
2019-04-10T08:20:35.286Z,36.11
2019-04-10T08:23:07.532Z,36.20
2019-04-10T08:25:40.942Z,35.56
2019-04-10T08:28:12.528Z,35.61
2019-04-10T08:30:43.950Z,35.60
2019-04-10T08:33:14.233Z,34.89
2019-04-10T08:35:45.590Z,34.80
2019-04-10T08:38:17.276Z,35.18
2019-04-10T08:40:49.235Z,34.17
2019-04-10T08:43:20.206Z,34.13
2019-04-10T08:45:52.214Z,34.50
2019-04-10T08:48:24.004Z,34.21
2019-04-10T08:50:56.730Z,33.87
2019-04-10T08:53:28.659Z,33.03
2019-04-10T08:55:59.732Z,33.29
2019-04-10T08:58:30.766Z,33.24
2019-04-10T09:01:02.908Z,32.67
2019-04-10T09:03:33.062Z,33.18
2019-04-10T09:06:03.252Z,33.19
2019-04-10T09:08:37.178Z,33.51
2019-04-10T09:11:09.098Z,33.27
2019-04-10T09:13:40.970Z,32.95
2019-04-10T09:16:12.171Z,32.81
2019-04-10T09:18:42.755Z,32.44
2019-04-10T09:21:13.921Z,32.75
2019-04-10T09:23:51.753Z,32.24
2019-04-10T09:26:20.283Z,32.34
2019-04-10T09:28:50.851Z,31.91
2019-04-10T09:31:21.808Z,31.68
2019-04-10T09:33:51.983Z,31.75
2019-04-10T09:36:22.237Z,31.96
2019-04-10T09:38:53.565Z,31.91
2019-04-10T09:41:25.911Z,33.19
2019-04-10T09:43:56.333Z,31.49
2019-04-10T09:46:26.871Z,32.03
2019-04-10T09:48:57.012Z,31.82
2019-04-10T09:51:28.087Z,31.03
2019-04-10T09:53:59.242Z,31.15
2019-04-10T09:56:32.880Z,30.53
2019-04-10T09:59:03.192Z,31.19
2019-04-10T10:01:36.390Z,31.57
2019-04-10T10:04:11.487Z,30.42
2019-04-10T10:06:41.768Z,30.36
2019-04-10T10:09:12.668Z,30.64
2019-04-10T10:11:44.855Z,29.61
2019-04-10T10:14:15.502Z,29.51
2019-04-10T10:16:46.350Z,28.65
2019-04-10T10:19:16.503Z,28.60
2019-04-10T10:21:46.691Z,28.56
2019-04-10T10:24:16.977Z,28.24
2019-04-10T10:26:47.738Z,27.79
2019-04-10T10:29:22.134Z,26.79
2019-04-10T10:31:53.732Z,26.72
2019-04-10T10:34:24.693Z,27.67
2019-04-10T10:36:55.948Z,26.63
2019-04-10T10:39:27.013Z,28.29
2019-04-10T10:41:58.569Z,27.21
2019-04-10T10:44:30.167Z,27.85
2019-04-10T10:47:11.787Z,29.01
2019-04-10T10:49:42.748Z,29.01
2019-04-10T10:52:13.300Z,28.93
2019-04-10T10:54:43.576Z,26.58
2019-04-10T10:57:15.132Z,25.53
2019-04-10T10:59:46.132Z,25.53
2019-04-10T11:02:17.107Z,25.00
2019-04-10T11:04:49.118Z,24.04
2019-04-10T11:07:20.791Z,23.78
2019-04-10T11:09:52.932Z,23.33
2019-04-10T11:12:24.129Z,23.82
2019-04-10T11:14:56.989Z,22.87
2019-04-10T11:17:29.450Z,23.29
2019-04-10T11:20:00.058Z,22.42
2019-04-10T11:22:33.156Z,22.46
2019-04-10T11:25:06.014Z,22.17
2019-04-10T11:27:39.304Z,21.22
2019-04-10T11:30:12.361Z,21.92
2019-04-10T11:32:44.486Z,21.41
2019-04-10T11:35:17.422Z,21.34
2019-04-10T11:37:53.227Z,21.65
2019-04-10T11:40:27.641Z,20.66
2019-04-10T11:43:05.096Z,20.79
2019-04-10T11:45:43.136Z,20.40
2019-04-10T11:48:12.712Z,20.33
2019-04-10T11:50:44.527Z,19.86
2019-04-10T11:53:19.049Z,21.28
2019-04-10T11:55:53.086Z,19.58
2019-04-10T11:58:25.211Z,20.36
2019-04-10T12:00:58.052Z,19.00
2019-04-10T12:03:28.329Z,18.07
2019-04-10T12:05:59.837Z,19.42
2019-04-10T12:08:55.274Z,19.83
2019-04-10T12:13:36.582Z,19.40
2019-04-10T12:16:09.278Z,18.43
2019-04-10T12:18:40.631Z,18.69
2019-04-10T12:21:11.874Z,17.64
2019-04-10T12:23:47.345Z,17.94
2019-04-10T12:26:21.992Z,18.50
2019-04-10T12:28:54.392Z,18.89
2019-04-10T12:31:25.835Z,19.78
2019-04-10T12:33:57.131Z,20.08
2019-04-10T12:36:28.804Z,19.02
2019-04-10T12:39:03.703Z,18.59
2019-04-10T12:41:36.527Z,18.35
2019-04-10T12:44:07.922Z,18.59
2019-04-10T12:46:39.467Z,17.99
2019-04-10T12:49:09.772Z,17.64
2019-04-10T12:51:41.664Z,17.68
2019-04-10T12:54:13.212Z,17.77
2019-04-10T12:56:43.721Z,18.54
2019-04-10T12:59:15.287Z,17.01
2019-04-10T13:01:47.036Z,17.32
2019-04-10T13:04:18.027Z,18.44
2019-04-10T13:06:51.018Z,18.40
2019-04-10T13:09:22.132Z,18.68
2019-04-10T13:11:53.097Z,17.89
2019-04-10T13:14:24.428Z,18.08
2019-04-10T13:16:54.633Z,18.04
2019-04-10T13:19:24.932Z,17.53
2019-04-10T13:21:57.867Z,17.97
2019-04-10T13:24:30.355Z,17.65
2019-04-10T13:27:00.567Z,17.63
2019-04-10T13:29:32.227Z,16.80
2019-04-10T13:32:03.488Z,16.60
2019-04-10T13:34:33.666Z,15.79
2019-04-10T13:37:04.098Z,16.18
2019-04-10T13:39:36.965Z,15.15
2019-04-10T13:42:09.306Z,15.03
2019-04-10T13:44:42.781Z,14.39
2019-04-10T13:47:13.398Z,14.24
2019-04-10T13:49:44.199Z,13.65
2019-04-10T13:52:15.964Z,12.35
2019-04-10T13:54:47.195Z,12.47
2019-04-10T13:57:18.150Z,12.34
2019-04-10T13:59:49.082Z,12.01
2019-04-10T14:02:32.310Z,11.80
2019-04-10T14:05:05.274Z,10.60
2019-04-10T14:07:36.057Z,10.72
2019-04-10T14:10:10.518Z,10.42
2019-04-10T14:12:41.172Z,9.61
2019-04-10T14:15:13.921Z,9.72
2019-04-10T14:17:44.176Z,9.09
2019-04-10T14:20:17.321Z,9.64
2019-04-10T14:23:08.433Z,10.01
2019-04-10T14:26:18.451Z,9.29
2019-04-10T14:28:51.394Z,8.89
2019-04-10T14:31:34.701Z,9.14
2019-04-10T14:34:05.500Z,9.03
2019-04-10T14:36:38.068Z,8.87
2019-04-10T14:39:18.293Z,8.95
2019-04-10T14:41:46.974Z,9.11
2019-04-10T14:44:18.828Z,8.34
2019-04-10T14:46:49.694Z,8.48
2019-04-10T14:49:20.869Z,8.51
2019-04-10T14:51:52.395Z,8.89
2019-04-10T14:54:23.801Z,8.73
2019-04-10T14:56:54.604Z,8.82
2019-04-10T14:59:24.734Z,9.09
2019-04-10T15:01:56.458Z,9.75
2019-04-10T15:04:26.950Z,10.87
2019-04-10T15:06:57.584Z,11.16
2019-04-10T15:09:29.217Z,12.37
2019-04-10T15:12:00.434Z,12.24
2019-04-10T15:14:33.873Z,12.99
2019-04-10T15:17:04.797Z,13.19
2019-04-10T15:19:36.424Z,13.27
2019-04-10T15:22:07.688Z,12.99
2019-04-10T15:24:37.933Z,12.80
2019-04-10T15:27:09.640Z,12.38
2019-04-10T15:29:40.871Z,12.03
2019-04-10T15:32:12.780Z,13.02
2019-04-10T15:34:43.743Z,13.50
2019-04-10T15:37:15.213Z,14.40
2019-04-10T15:39:46.589Z,15.45
2019-04-10T15:42:21.768Z,16.45
2019-04-10T15:44:52.793Z,17.49
2019-04-10T15:47:23.506Z,18.27
2019-04-10T15:49:53.707Z,18.56
2019-04-10T15:52:24.372Z,18.88
2019-04-10T15:54:59.365Z,19.48
2019-04-10T15:57:44.253Z,20.10
2019-04-10T16:00:10.722Z,20.47
2019-04-10T16:02:44.792Z,20.66
2019-04-10T16:05:16.097Z,20.86
2019-04-10T16:07:46.928Z,22.15
2019-04-10T16:10:33.949Z,22.16
2019-04-10T16:13:10.848Z,22.37
2019-04-10T16:15:45.029Z,23.18
2019-04-10T16:18:18.970Z,23.42
2019-04-10T16:20:50.743Z,23.10
2019-04-10T16:23:40.104Z,23.10
2019-04-10T16:26:11.397Z,23.97
2019-04-10T16:28:43.133Z,24.27
2019-04-10T16:31:15.138Z,23.54
2019-04-10T16:33:45.594Z,24.04
2019-04-10T16:36:17.161Z,24.04
2019-04-10T16:38:47.458Z,23.67
2019-04-10T16:41:17.768Z,23.60
2019-04-10T16:43:52.795Z,24.07
2019-04-10T16:46:25.155Z,24.87
2019-04-10T16:48:56.706Z,24.03
2019-04-10T16:51:28.094Z,24.89
2019-04-10T16:53:58.739Z,25.09
2019-04-10T16:56:32.209Z,25.09
2019-04-10T16:59:08.764Z,25.55
2019-04-10T17:01:39.685Z,24.89
2019-04-10T17:04:11.235Z,24.90
2019-04-10T17:06:44.226Z,25.46
2019-04-10T17:09:19.131Z,25.54
2019-04-10T17:11:51.219Z,25.19
2019-04-10T17:14:23.832Z,25.65
2019-04-10T17:16:55.681Z,25.74
2019-04-10T17:19:28.879Z,25.19
2019-04-10T17:22:00.622Z,25.09
2019-04-10T17:24:31.396Z,25.33
2019-04-10T17:27:02.071Z,25.46
2019-04-10T17:29:39.048Z,25.12
2019-04-10T17:32:11.089Z,25.74
2019-04-10T17:34:43.088Z,25.29
2019-04-10T17:37:13.766Z,25.49
2019-04-10T17:39:45.211Z,25.95
2019-04-10T17:42:16.902Z,26.00
2019-04-10T17:44:49.779Z,26.24
2019-04-10T17:47:23.203Z,26.43
2019-04-10T17:49:53.947Z,26.28
2019-04-10T17:52:27.114Z,26.70
2019-04-10T17:55:00.951Z,25.81
2019-04-10T17:57:38.361Z,26.32
2019-04-10T18:00:09.208Z,26.53
2019-04-10T18:02:41.328Z,27.21
2019-04-10T18:05:12.661Z,27.09
2019-04-10T18:07:44.049Z,27.14
2019-04-10T18:10:16.114Z,27.10
2019-04-10T18:12:46.447Z,26.89
2019-04-10T18:15:17.663Z,27.84
2019-04-10T18:17:49.474Z,27.15
2019-04-10T18:20:19.983Z,27.27
2019-04-10T18:22:51.869Z,27.41
2019-04-10T18:25:22.260Z,27.75
2019-04-10T18:27:52.889Z,27.38
2019-04-10T18:30:24.825Z,27.14
2019-04-10T18:32:56.169Z,27.12
2019-04-10T18:35:27.437Z,27.57
2019-04-10T18:37:58.659Z,27.14
2019-04-10T18:40:30.041Z,27.48
2019-04-10T18:43:02.294Z,27.32
2019-04-10T18:45:35.616Z,27.95
2019-04-10T18:48:08.618Z,27.98
2019-04-10T18:50:40.606Z,27.54
2019-04-10T18:53:13.112Z,28.23
2019-04-10T18:55:44.812Z,27.80
2019-04-10T18:58:21.183Z,28.02
2019-04-10T19:01:13.181Z,28.38
2019-04-10T19:03:59.224Z,27.80
2019-04-10T19:06:36.269Z,28.06
2019-04-10T19:09:14.299Z,27.93
2019-04-10T19:11:41.538Z,28.31
2019-04-10T19:14:12.289Z,28.41
2019-04-10T19:16:43.659Z,28.52
2019-04-10T19:19:14.588Z,28.38
2019-04-10T19:21:46.136Z,28.06
2019-04-10T19:24:17.354Z,27.92
2019-04-10T19:26:48.086Z,28.39
2019-04-10T19:29:19.245Z,29.00
2019-04-10T19:31:54.133Z,28.61
2019-04-10T19:34:25.513Z,28.62
2019-04-10T19:36:56.378Z,29.15
2019-04-10T19:39:26.980Z,29.41
2019-04-10T19:41:57.675Z,29.46
2019-04-10T19:44:28.950Z,29.41
2019-04-10T19:47:02.076Z,29.39
2019-04-10T19:49:34.926Z,28.83
2019-04-10T19:52:06.489Z,29.58
2019-04-10T19:54:36.618Z,29.56
2019-04-10T19:57:07.585Z,29.76
2019-04-10T19:59:40.016Z,29.33
2019-04-10T20:02:11.427Z,29.64
2019-04-10T20:04:41.618Z,29.83
2019-04-10T20:07:13.088Z,29.86
2019-04-10T20:09:44.410Z,29.25
2019-04-10T20:12:16.257Z,29.85
2019-04-10T20:14:46.867Z,29.98
2019-04-10T20:17:19.813Z,29.57
2019-04-10T20:19:52.685Z,30.05
2019-04-10T20:22:27.953Z,29.97
2019-04-10T20:25:00.461Z,29.78
2019-04-10T20:27:32.141Z,29.52
2019-04-10T20:30:05.737Z,29.38
2019-04-10T20:32:38.611Z,29.17
2019-04-10T20:35:10.281Z,29.10
2019-04-10T20:37:42.964Z,29.60
2019-04-10T20:40:15.937Z,29.31
2019-04-10T20:42:48.707Z,29.36
2019-04-10T20:45:21.133Z,29.31
2019-04-10T20:47:52.827Z,29.60
2019-04-10T20:50:23.964Z,29.67
2019-04-10T20:52:55.833Z,29.25
2019-04-10T20:55:28.254Z,29.75
2019-04-10T20:58:00.238Z,29.69
2019-04-10T21:00:34.359Z,30.12
2019-04-10T21:03:07.122Z,30.02
2019-04-10T21:05:37.663Z,29.81
2019-04-10T21:08:09.430Z,29.62
2019-04-10T21:10:40.873Z,29.44
2019-04-10T21:13:12.946Z,30.09
2019-04-10T21:15:46.306Z,30.45
2019-04-10T21:18:19.680Z,30.62
2019-04-10T21:20:53.631Z,30.04
2019-04-10T21:23:25.123Z,29.77
2019-04-10T21:25:55.629Z,30.11
2019-04-10T21:28:26.022Z,30.10
2019-04-10T21:31:15.757Z,30.28
2019-04-10T21:34:11.957Z,30.78
2019-04-10T21:36:43.507Z,30.47
2019-04-10T21:39:13.874Z,30.06
2019-04-10T21:41:45.228Z,30.43
2019-04-10T21:44:16.124Z,30.75
2019-04-10T21:46:48.412Z,30.22
2019-04-10T21:49:20.623Z,30.08
2019-04-10T21:51:51.690Z,30.31
2019-04-10T21:54:24.522Z,30.22
2019-04-10T21:56:55.616Z,30.09
2019-04-10T21:59:26.866Z,30.33
2019-04-10T22:01:59.223Z,30.31
2019-04-10T22:04:30.958Z,29.95
2019-04-10T22:07:18.906Z,30.28
2019-04-10T22:10:01.527Z,30.25
2019-04-10T22:12:38.994Z,30.30
2019-04-10T22:15:06.574Z,30.27
2019-04-10T22:17:36.794Z,30.24
2019-04-10T22:20:09.629Z,30.36
2019-04-10T22:22:40.803Z,30.07
2019-04-10T22:25:13.119Z,30.49
2019-04-10T22:27:44.155Z,30.83
2019-04-10T22:30:15.168Z,30.85
2019-04-10T22:32:45.649Z,30.57
2019-04-10T22:35:19.445Z,30.57
2019-04-10T22:37:50.362Z,30.85
2019-04-10T22:40:21.514Z,31.16
2019-04-10T22:42:53.173Z,30.65
2019-04-10T22:45:30.981Z,31.06
2019-04-10T22:48:01.348Z,30.80
2019-04-10T22:50:32.901Z,31.15
2019-04-10T22:53:05.385Z,30.81
2019-04-10T22:55:38.061Z,30.77
2019-04-10T22:58:09.002Z,30.94
2019-04-10T23:00:39.838Z,30.70
2019-04-10T23:03:11.394Z,31.04
2019-04-10T23:05:44.755Z,31.07
2019-04-10T23:08:15.617Z,31.01
2019-04-10T23:10:45.882Z,31.06
2019-04-10T23:13:18.040Z,31.24
2019-04-10T23:15:51.465Z,31.01
2019-04-10T23:18:22.087Z,30.73
2019-04-10T23:20:54.696Z,30.91
2019-04-10T23:23:25.585Z,30.67
2019-04-10T23:25:58.483Z,31.10
2019-04-10T23:28:28.781Z,31.51
2019-04-10T23:30:59.456Z,31.63
2019-04-10T23:33:30.192Z,31.76
2019-04-10T23:36:02.132Z,31.60
2019-04-10T23:38:33.251Z,31.62
2019-04-10T23:41:05.368Z,31.56
2019-04-10T23:43:36.352Z,31.42
2019-04-10T23:46:08.356Z,31.79
2019-04-10T23:48:39.492Z,31.39
2019-04-10T23:51:10.659Z,31.88
2019-04-10T23:53:41.973Z,31.90
2019-04-10T23:56:15.588Z,31.79
2019-04-10T23:58:48.056Z,31.84
